sensor_id;sensor_type;location;lat;lon;timestamp;temperature;humidity
4697;DHT22;2362;50.780;0.292;2023-06-04T00:01:08;11.60;99.90
4697;DHT22;2362;50.780;0.292;2023-06-04T00:03:34;11.50;99.90
4697;DHT22;2362;50.780;0.292;2023-06-04T00:06:00;11.50;99.90
4697;DHT22;2362;50.780;0.292;2023-06-04T00:08:26;11.50;99.90
4697;DHT22;2362;50.780;0.292;2023-06-04T00:10:51;11.50;99.90
4697;DHT22;2362;50.780;0.292;2023-06-04T00:13:17;11.50;99.90
4697;DHT22;2362;50.780;0.292;2023-06-04T00:15:43;11.50;99.90
4697;DHT22;2362;50.780;0.292;2023-06-04T00:18:09;11.50;99.90
4697;DHT22;2362;50.780;0.292;2023-06-04T00:20:36;11.50;99.90
4697;DHT22;2362;50.780;0.292;2023-06-04T00:23:02;11.50;99.90
4697;DHT22;2362;50.780;0.292;2023-06-04T00:25:28;11.50;99.90
4697;DHT22;2362;50.780;0.292;2023-06-04T00:28:19;11.40;99.90
4697;DHT22;2362;50.780;0.292;2023-06-04T00:31:10;11.40;99.90
4697;DHT22;2362;50.780;0.292;2023-06-04T00:33:40;11.40;99.90
4697;DHT22;2362;50.780;0.292;2023-06-04T00:36:06;11.40;99.90
4697;DHT22;2362;50.780;0.292;2023-06-04T00:38:32;11.40;99.90
4697;DHT22;2362;50.780;0.292;2023-06-04T00:40:58;11.40;99.90
4697;DHT22;2362;50.780;0.292;2023-06-04T00:43:24;11.30;99.90
4697;DHT22;2362;50.780;0.292;2023-06-04T00:45:53;11.30;99.90
4697;DHT22;2362;50.780;0.292;2023-06-04T00:48:19;11.30;99.90
4697;DHT22;2362;50.780;0.292;2023-06-04T00:50:47;11.20;99.90
4697;DHT22;2362;50.780;0.292;2023-06-04T00:53:12;11.20;99.90
4697;DHT22;2362;50.780;0.292;2023-06-04T00:55:38;11.20;99.90
4697;DHT22;2362;50.780;0.292;2023-06-04T00:58:06;11.30;99.90
4697;DHT22;2362;50.780;0.292;2023-06-04T01:00:32;11.30;99.90
4697;DHT22;2362;50.780;0.292;2023-06-04T01:02:58;11.30;99.90
4697;DHT22;2362;50.780;0.292;2023-06-04T01:05:36;11.30;99.90
4697;DHT22;2362;50.780;0.292;2023-06-04T01:08:04;11.30;99.90
4697;DHT22;2362;50.780;0.292;2023-06-04T01:10:31;11.20;99.90
4697;DHT22;2362;50.780;0.292;2023-06-04T01:12:56;11.20;99.90
4697;DHT22;2362;50.780;0.292;2023-06-04T01:15:22;11.20;99.90
4697;DHT22;2362;50.780;0.292;2023-06-04T01:17:54;11.20;99.90
4697;DHT22;2362;50.780;0.292;2023-06-04T01:20:44;11.10;99.90
4697;DHT22;2362;50.780;0.292;2023-06-04T01:26:02;11.10;99.90
4697;DHT22;2362;50.780;0.292;2023-06-04T01:28:55;11.10;99.90
4697;DHT22;2362;50.780;0.292;2023-06-04T01:31:24;11.00;99.90
4697;DHT22;2362;50.780;0.292;2023-06-04T01:33:55;11.00;99.90
4697;DHT22;2362;50.780;0.292;2023-06-04T01:36:24;10.90;99.90
4697;DHT22;2362;50.780;0.292;2023-06-04T01:38:50;10.90;99.90
4697;DHT22;2362;50.780;0.292;2023-06-04T01:41:17;10.90;99.90
4697;DHT22;2362;50.780;0.292;2023-06-04T01:43:42;10.90;99.90
4697;DHT22;2362;50.780;0.292;2023-06-04T01:46:08;10.90;99.90
4697;DHT22;2362;50.780;0.292;2023-06-04T01:48:34;10.90;99.90
4697;DHT22;2362;50.780;0.292;2023-06-04T01:51:00;10.90;99.90
4697;DHT22;2362;50.780;0.292;2023-06-04T01:59:58;10.90;99.90
4697;DHT22;2362;50.780;0.292;2023-06-04T02:02:24;10.90;99.90
4697;DHT22;2362;50.780;0.292;2023-06-04T02:04:50;10.90;99.90
4697;DHT22;2362;50.780;0.292;2023-06-04T02:07:18;10.90;99.90
4697;DHT22;2362;50.780;0.292;2023-06-04T02:09:49;10.90;99.90
4697;DHT22;2362;50.780;0.292;2023-06-04T02:12:15;11.00;99.90
4697;DHT22;2362;50.780;0.292;2023-06-04T02:14:42;11.00;99.90
4697;DHT22;2362;50.780;0.292;2023-06-04T02:17:08;10.90;99.90
4697;DHT22;2362;50.780;0.292;2023-06-04T02:19:42;10.90;99.90
4697;DHT22;2362;50.780;0.292;2023-06-04T02:22:16;11.00;99.90
4697;DHT22;2362;50.780;0.292;2023-06-04T02:24:41;10.90;99.90
4697;DHT22;2362;50.780;0.292;2023-06-04T02:27:11;10.90;99.90
4697;DHT22;2362;50.780;0.292;2023-06-04T02:29:41;10.90;99.90
4697;DHT22;2362;50.780;0.292;2023-06-04T02:32:07;10.90;99.90
4697;DHT22;2362;50.780;0.292;2023-06-04T02:34:59;10.90;99.90
4697;DHT22;2362;50.780;0.292;2023-06-04T02:37:24;10.90;99.90
4697;DHT22;2362;50.780;0.292;2023-06-04T02:39:50;10.90;99.90
4697;DHT22;2362;50.780;0.292;2023-06-04T02:42:16;10.80;99.90
4697;DHT22;2362;50.780;0.292;2023-06-04T02:44:41;10.80;99.90
4697;DHT22;2362;50.780;0.292;2023-06-04T02:47:07;10.80;99.90
4697;DHT22;2362;50.780;0.292;2023-06-04T02:49:33;10.80;99.90
4697;DHT22;2362;50.780;0.292;2023-06-04T02:51:58;10.80;99.90
4697;DHT22;2362;50.780;0.292;2023-06-04T02:54:24;10.80;99.90
4697;DHT22;2362;50.780;0.292;2023-06-04T02:56:50;10.80;99.90
4697;DHT22;2362;50.780;0.292;2023-06-04T02:59:16;10.80;99.90
4697;DHT22;2362;50.780;0.292;2023-06-04T03:01:43;10.80;99.90
4697;DHT22;2362;50.780;0.292;2023-06-04T03:04:09;10.80;99.90
4697;DHT22;2362;50.780;0.292;2023-06-04T03:06:36;10.80;99.90
4697;DHT22;2362;50.780;0.292;2023-06-04T03:09:30;10.80;99.90
4697;DHT22;2362;50.780;0.292;2023-06-04T03:12:01;10.80;99.90
4697;DHT22;2362;50.780;0.292;2023-06-04T03:14:27;10.80;99.90
4697;DHT22;2362;50.780;0.292;2023-06-04T03:17:01;10.70;99.90
4697;DHT22;2362;50.780;0.292;2023-06-04T03:19:35;10.70;99.90
4697;DHT22;2362;50.780;0.292;2023-06-04T03:22:01;10.70;99.90
4697;DHT22;2362;50.780;0.292;2023-06-04T03:24:33;10.70;99.90
4697;DHT22;2362;50.780;0.292;2023-06-04T03:27:01;10.70;99.90
4697;DHT22;2362;50.780;0.292;2023-06-04T03:29:26;10.70;99.90
4697;DHT22;2362;50.780;0.292;2023-06-04T03:31:52;10.70;99.90
4697;DHT22;2362;50.780;0.292;2023-06-04T03:34:18;10.60;99.90
4697;DHT22;2362;50.780;0.292;2023-06-04T03:36:44;10.60;99.90
4697;DHT22;2362;50.780;0.292;2023-06-04T03:39:10;10.60;99.90
4697;DHT22;2362;50.780;0.292;2023-06-04T03:41:36;10.60;99.90
4697;DHT22;2362;50.780;0.292;2023-06-04T03:44:02;10.60;99.90
4697;DHT22;2362;50.780;0.292;2023-06-04T03:46:28;10.60;99.90
4697;DHT22;2362;50.780;0.292;2023-06-04T03:48:58;10.70;99.90
4697;DHT22;2362;50.780;0.292;2023-06-04T03:51:24;10.60;99.90
4697;DHT22;2362;50.780;0.292;2023-06-04T03:53:50;10.60;99.90
4697;DHT22;2362;50.780;0.292;2023-06-04T03:56:16;10.60;99.90
4697;DHT22;2362;50.780;0.292;2023-06-04T03:58:42;10.60;99.90
4697;DHT22;2362;50.780;0.292;2023-06-04T04:01:07;10.60;99.90
4697;DHT22;2362;50.780;0.292;2023-06-04T04:03:36;10.60;99.90
4697;DHT22;2362;50.780;0.292;2023-06-04T04:06:02;10.60;99.90
4697;DHT22;2362;50.780;0.292;2023-06-04T04:08:28;10.60;99.90
4697;DHT22;2362;50.780;0.292;2023-06-04T04:11:00;10.70;99.90
4697;DHT22;2362;50.780;0.292;2023-06-04T04:13:26;10.60;99.90
4697;DHT22;2362;50.780;0.292;2023-06-04T04:16:17;10.70;99.90
4697;DHT22;2362;50.780;0.292;2023-06-04T04:18:43;10.70;99.90
4697;DHT22;2362;50.780;0.292;2023-06-04T04:21:09;10.70;99.90
4697;DHT22;2362;50.780;0.292;2023-06-04T04:23:38;10.70;99.90
4697;DHT22;2362;50.780;0.292;2023-06-04T04:26:05;10.70;99.90
4697;DHT22;2362;50.780;0.292;2023-06-04T04:28:32;10.70;99.90
4697;DHT22;2362;50.780;0.292;2023-06-04T04:30:58;10.70;99.90
4697;DHT22;2362;50.780;0.292;2023-06-04T04:33:25;10.70;99.90
4697;DHT22;2362;50.780;0.292;2023-06-04T04:35:51;10.80;99.90
4697;DHT22;2362;50.780;0.292;2023-06-04T04:38:19;10.80;99.90
4697;DHT22;2362;50.780;0.292;2023-06-04T04:40:44;10.80;99.90
4697;DHT22;2362;50.780;0.292;2023-06-04T04:43:13;10.70;99.90
4697;DHT22;2362;50.780;0.292;2023-06-04T04:45:39;10.80;99.90
4697;DHT22;2362;50.780;0.292;2023-06-04T04:48:04;10.80;99.90
4697;DHT22;2362;50.780;0.292;2023-06-04T04:50:55;10.80;99.90
4697;DHT22;2362;50.780;0.292;2023-06-04T04:53:46;10.90;99.90
4697;DHT22;2362;50.780;0.292;2023-06-04T04:56:37;11.00;99.90
4697;DHT22;2362;50.780;0.292;2023-06-04T04:59:06;11.10;99.90
4697;DHT22;2362;50.780;0.292;2023-06-04T05:01:32;11.30;99.90
4697;DHT22;2362;50.780;0.292;2023-06-04T05:03:57;11.80;99.90
4697;DHT22;2362;50.780;0.292;2023-06-04T05:06:23;12.30;99.90
4697;DHT22;2362;50.780;0.292;2023-06-04T05:08:49;12.80;99.90
4697;DHT22;2362;50.780;0.292;2023-06-04T05:11:14;13.10;99.90
4697;DHT22;2362;50.780;0.292;2023-06-04T05:13:40;13.50;99.90
4697;DHT22;2362;50.780;0.292;2023-06-04T05:16:08;13.80;99.90
4697;DHT22;2362;50.780;0.292;2023-06-04T05:18:40;13.90;99.90
4697;DHT22;2362;50.780;0.292;2023-06-04T05:21:10;14.20;99.90
4697;DHT22;2362;50.780;0.292;2023-06-04T05:23:38;14.40;99.90
4697;DHT22;2362;50.780;0.292;2023-06-04T05:26:04;14.60;99.90
4697;DHT22;2362;50.780;0.292;2023-06-04T05:28:31;14.70;99.90
4697;DHT22;2362;50.780;0.292;2023-06-04T05:31:00;14.90;99.90
4697;DHT22;2362;50.780;0.292;2023-06-04T05:33:30;15.10;99.90
4697;DHT22;2362;50.780;0.292;2023-06-04T05:35:56;15.10;99.90
4697;DHT22;2362;50.780;0.292;2023-06-04T05:38:23;15.30;99.90
4697;DHT22;2362;50.780;0.292;2023-06-04T05:40:51;15.50;99.90
4697;DHT22;2362;50.780;0.292;2023-06-04T05:43:17;15.60;99.90
4697;DHT22;2362;50.780;0.292;2023-06-04T05:45:43;16.00;99.90
4697;DHT22;2362;50.780;0.292;2023-06-04T05:48:09;16.00;99.90
4697;DHT22;2362;50.780;0.292;2023-06-04T05:50:35;16.10;99.90
4697;DHT22;2362;50.780;0.292;2023-06-04T05:53:00;16.30;99.90
4697;DHT22;2362;50.780;0.292;2023-06-04T05:55:26;16.50;99.90
4697;DHT22;2362;50.780;0.292;2023-06-04T05:57:54;16.50;99.90
4697;DHT22;2362;50.780;0.292;2023-06-04T06:00:19;16.60;99.90
4697;DHT22;2362;50.780;0.292;2023-06-04T06:02:46;16.90;99.90
4697;DHT22;2362;50.780;0.292;2023-06-04T06:05:14;16.70;99.90
4697;DHT22;2362;50.780;0.292;2023-06-04T06:07:41;16.80;99.90
4697;DHT22;2362;50.780;0.292;2023-06-04T06:10:07;16.80;99.90
4697;DHT22;2362;50.780;0.292;2023-06-04T06:12:32;16.70;99.90
4697;DHT22;2362;50.780;0.292;2023-06-04T06:14:58;16.90;99.90
4697;DHT22;2362;50.780;0.292;2023-06-04T06:17:24;16.90;99.90
4697;DHT22;2362;50.780;0.292;2023-06-04T06:19:52;16.80;99.90
4697;DHT22;2362;50.780;0.292;2023-06-04T06:22:17;17.10;99.90
4697;DHT22;2362;50.780;0.292;2023-06-04T06:24:43;17.30;99.90
4697;DHT22;2362;50.780;0.292;2023-06-04T06:27:10;17.40;99.90
4697;DHT22;2362;50.780;0.292;2023-06-04T06:29:36;17.50;99.90
4697;DHT22;2362;50.780;0.292;2023-06-04T06:32:02;17.50;99.90
4697;DHT22;2362;50.780;0.292;2023-06-04T06:34:31;17.50;99.90
4697;DHT22;2362;50.780;0.292;2023-06-04T06:36:57;18.00;99.90
4697;DHT22;2362;50.780;0.292;2023-06-04T06:39:23;17.90;99.90
4697;DHT22;2362;50.780;0.292;2023-06-04T06:41:48;17.60;99.90
4697;DHT22;2362;50.780;0.292;2023-06-04T06:44:14;17.80;99.90
4697;DHT22;2362;50.780;0.292;2023-06-04T06:46:40;18.00;99.90
4697;DHT22;2362;50.780;0.292;2023-06-04T06:49:06;18.10;99.90
4697;DHT22;2362;50.780;0.292;2023-06-04T06:51:32;18.00;99.90
4697;DHT22;2362;50.780;0.292;2023-06-04T06:53:58;18.20;99.90
4697;DHT22;2362;50.780;0.292;2023-06-04T06:56:24;18.40;99.90
4697;DHT22;2362;50.780;0.292;2023-06-04T06:58:50;18.10;99.90
4697;DHT22;2362;50.780;0.292;2023-06-04T07:01:16;18.10;99.90
4697;DHT22;2362;50.780;0.292;2023-06-04T07:03:42;18.60;99.90
4697;DHT22;2362;50.780;0.292;2023-06-04T07:06:09;18.90;99.90
4697;DHT22;2362;50.780;0.292;2023-06-04T07:08:35;18.70;99.90
4697;DHT22;2362;50.780;0.292;2023-06-04T07:11:03;19.10;99.90
4697;DHT22;2362;50.780;0.292;2023-06-04T07:13:29;19.20;99.90
4697;DHT22;2362;50.780;0.292;2023-06-04T07:15:58;19.40;99.90
4697;DHT22;2362;50.780;0.292;2023-06-04T07:18:24;19.60;99.90
4697;DHT22;2362;50.780;0.292;2023-06-04T07:20:50;19.30;99.90
4697;DHT22;2362;50.780;0.292;2023-06-04T07:23:18;19.60;99.90
4697;DHT22;2362;50.780;0.292;2023-06-04T07:25:44;19.50;99.90
4697;DHT22;2362;50.780;0.292;2023-06-04T07:28:09;19.80;99.90
4697;DHT22;2362;50.780;0.292;2023-06-04T07:30:35;19.50;99.90
4697;DHT22;2362;50.780;0.292;2023-06-04T07:33:02;19.60;99.90
4697;DHT22;2362;50.780;0.292;2023-06-04T07:35:28;19.90;99.90
4697;DHT22;2362;50.780;0.292;2023-06-04T07:37:53;20.00;99.90
4697;DHT22;2362;50.780;0.292;2023-06-04T07:40:19;20.00;99.90
4697;DHT22;2362;50.780;0.292;2023-06-04T07:42:46;19.60;99.90
4697;DHT22;2362;50.780;0.292;2023-06-04T07:45:12;19.90;99.90
4697;DHT22;2362;50.780;0.292;2023-06-04T07:47:38;20.50;99.90
4697;DHT22;2362;50.780;0.292;2023-06-04T07:50:29;20.40;99.90
4697;DHT22;2362;50.780;0.292;2023-06-04T07:53:20;20.90;99.90
4697;DHT22;2362;50.780;0.292;2023-06-04T07:56:12;20.80;99.90
4697;DHT22;2362;50.780;0.292;2023-06-04T07:59:03;20.60;99.90
4697;DHT22;2362;50.780;0.292;2023-06-04T08:01:55;20.80;99.90
4697;DHT22;2362;50.780;0.292;2023-06-04T08:04:20;21.00;99.90
4697;DHT22;2362;50.780;0.292;2023-06-04T08:06:47;20.60;99.90
4697;DHT22;2362;50.780;0.292;2023-06-04T08:09:15;20.40;99.90
4697;DHT22;2362;50.780;0.292;2023-06-04T08:11:41;20.30;99.90
4697;DHT22;2362;50.780;0.292;2023-06-04T08:14:13;20.30;99.90
4697;DHT22;2362;50.780;0.292;2023-06-04T08:16:39;20.60;99.90
4697;DHT22;2362;50.780;0.292;2023-06-04T08:19:06;20.50;99.90
4697;DHT22;2362;50.780;0.292;2023-06-04T08:21:33;20.50;99.90
4697;DHT22;2362;50.780;0.292;2023-06-04T08:23:59;20.50;99.90
4697;DHT22;2362;50.780;0.292;2023-06-04T08:26:25;20.40;99.90
4697;DHT22;2362;50.780;0.292;2023-06-04T08:28:52;20.70;99.90
4697;DHT22;2362;50.780;0.292;2023-06-04T08:31:18;20.70;99.90
4697;DHT22;2362;50.780;0.292;2023-06-04T08:33:48;20.30;99.90
4697;DHT22;2362;50.780;0.292;2023-06-04T08:36:14;20.30;99.90
4697;DHT22;2362;50.780;0.292;2023-06-04T08:38:41;20.30;99.90
4697;DHT22;2362;50.780;0.292;2023-06-04T08:41:15;20.30;99.90
4697;DHT22;2362;50.780;0.292;2023-06-04T08:43:41;20.70;99.90
4697;DHT22;2362;50.780;0.292;2023-06-04T08:46:09;20.70;99.90
4697;DHT22;2362;50.780;0.292;2023-06-04T08:48:35;20.90;99.90
4697;DHT22;2362;50.780;0.292;2023-06-04T08:51:05;20.70;99.90
4697;DHT22;2362;50.780;0.292;2023-06-04T08:53:33;20.50;99.90
4697;DHT22;2362;50.780;0.292;2023-06-04T08:55:59;20.40;99.90
4697;DHT22;2362;50.780;0.292;2023-06-04T08:58:25;20.50;99.90
4697;DHT22;2362;50.780;0.292;2023-06-04T09:00:51;20.80;99.90
4697;DHT22;2362;50.780;0.292;2023-06-04T09:03:17;20.90;99.90
4697;DHT22;2362;50.780;0.292;2023-06-04T09:05:47;20.40;99.90
4697;DHT22;2362;50.780;0.292;2023-06-04T09:08:17;20.30;99.90
4697;DHT22;2362;50.780;0.292;2023-06-04T09:10:44;20.30;99.90
4697;DHT22;2362;50.780;0.292;2023-06-04T09:13:15;20.30;99.90
4697;DHT22;2362;50.780;0.292;2023-06-04T09:15:42;20.70;99.90
4697;DHT22;2362;50.780;0.292;2023-06-04T09:18:08;21.00;99.90
4697;DHT22;2362;50.780;0.292;2023-06-04T09:20:34;20.70;99.90
4697;DHT22;2362;50.780;0.292;2023-06-04T09:22:59;20.70;99.90
4697;DHT22;2362;50.780;0.292;2023-06-04T09:25:27;20.80;99.90
4697;DHT22;2362;50.780;0.292;2023-06-04T09:27:54;20.90;99.90
4697;DHT22;2362;50.780;0.292;2023-06-04T09:30:23;20.70;99.90
4697;DHT22;2362;50.780;0.292;2023-06-04T09:32:48;20.70;99.90
4697;DHT22;2362;50.780;0.292;2023-06-04T09:35:16;20.50;99.90
4697;DHT22;2362;50.780;0.292;2023-06-04T09:37:52;20.10;99.90
4697;DHT22;2362;50.780;0.292;2023-06-04T09:40:19;20.00;99.90
4697;DHT22;2362;50.780;0.292;2023-06-04T09:42:49;19.60;99.90
4697;DHT22;2362;50.780;0.292;2023-06-04T09:45:35;19.60;99.90
4697;DHT22;2362;50.780;0.292;2023-06-04T09:48:01;19.80;99.90
4697;DHT22;2362;50.780;0.292;2023-06-04T09:50:33;19.90;99.90
4697;DHT22;2362;50.780;0.292;2023-06-04T09:53:00;20.00;99.90
4697;DHT22;2362;50.780;0.292;2023-06-04T09:55:27;20.00;99.90
4697;DHT22;2362;50.780;0.292;2023-06-04T09:57:53;20.10;99.90
4697;DHT22;2362;50.780;0.292;2023-06-04T10:00:23;19.70;99.90
4697;DHT22;2362;50.780;0.292;2023-06-04T10:02:57;19.70;99.90
4697;DHT22;2362;50.780;0.292;2023-06-04T10:05:25;19.60;99.90
4697;DHT22;2362;50.780;0.292;2023-06-04T10:07:51;19.70;99.90
4697;DHT22;2362;50.780;0.292;2023-06-04T10:10:25;19.60;99.90
4697;DHT22;2362;50.780;0.292;2023-06-04T10:12:58;19.40;99.90
4697;DHT22;2362;50.780;0.292;2023-06-04T10:15:26;19.60;99.90
4697;DHT22;2362;50.780;0.292;2023-06-04T10:17:53;19.80;99.90
4697;DHT22;2362;50.780;0.292;2023-06-04T10:20:20;19.80;99.90
4697;DHT22;2362;50.780;0.292;2023-06-04T10:22:47;20.10;99.90
4697;DHT22;2362;50.780;0.292;2023-06-04T10:25:14;20.00;99.90
4697;DHT22;2362;50.780;0.292;2023-06-04T10:27:41;20.10;99.90
4697;DHT22;2362;50.780;0.292;2023-06-04T10:30:07;20.20;99.90
4697;DHT22;2362;50.780;0.292;2023-06-04T10:32:33;20.30;99.90
4697;DHT22;2362;50.780;0.292;2023-06-04T10:35:04;20.20;99.90
4697;DHT22;2362;50.780;0.292;2023-06-04T10:37:30;20.30;99.90
4697;DHT22;2362;50.780;0.292;2023-06-04T10:39:56;20.30;99.90
4697;DHT22;2362;50.780;0.292;2023-06-04T10:42:23;20.30;99.90
4697;DHT22;2362;50.780;0.292;2023-06-04T10:44:54;20.30;99.90
4697;DHT22;2362;50.780;0.292;2023-06-04T10:47:24;20.40;99.90
4697;DHT22;2362;50.780;0.292;2023-06-04T10:49:51;20.40;99.90
4697;DHT22;2362;50.780;0.292;2023-06-04T10:52:17;20.30;99.90
4697;DHT22;2362;50.780;0.292;2023-06-04T10:54:45;20.40;99.90
4697;DHT22;2362;50.780;0.292;2023-06-04T10:57:13;20.40;99.90
4697;DHT22;2362;50.780;0.292;2023-06-04T10:59:38;20.40;99.90
4697;DHT22;2362;50.780;0.292;2023-06-04T11:02:05;20.00;99.90
4697;DHT22;2362;50.780;0.292;2023-06-04T11:04:31;19.70;99.90
4697;DHT22;2362;50.780;0.292;2023-06-04T11:07:04;19.50;99.90
4697;DHT22;2362;50.780;0.292;2023-06-04T11:09:35;19.20;99.90
4697;DHT22;2362;50.780;0.292;2023-06-04T11:12:03;18.90;99.90
4697;DHT22;2362;50.780;0.292;2023-06-04T11:14:29;18.70;99.90
4697;DHT22;2362;50.780;0.292;2023-06-04T11:16:55;18.50;99.90
4697;DHT22;2362;50.780;0.292;2023-06-04T11:19:21;18.50;99.90
4697;DHT22;2362;50.780;0.292;2023-06-04T11:21:48;18.40;99.90
4697;DHT22;2362;50.780;0.292;2023-06-04T11:24:14;18.30;99.90
4697;DHT22;2362;50.780;0.292;2023-06-04T11:26:39;18.40;99.90
4697;DHT22;2362;50.780;0.292;2023-06-04T11:29:11;18.40;99.90
4697;DHT22;2362;50.780;0.292;2023-06-04T11:31:47;18.30;99.90
4697;DHT22;2362;50.780;0.292;2023-06-04T11:36:48;18.10;99.90
4697;DHT22;2362;50.780;0.292;2023-06-04T11:39:15;18.00;99.90
4697;DHT22;2362;50.780;0.292;2023-06-04T11:41:41;18.10;99.90
4697;DHT22;2362;50.780;0.292;2023-06-04T11:44:08;18.30;99.90
4697;DHT22;2362;50.780;0.292;2023-06-04T11:46:35;18.30;99.90
4697;DHT22;2362;50.780;0.292;2023-06-04T11:49:25;18.20;99.90
4697;DHT22;2362;50.780;0.292;2023-06-04T11:52:18;18.00;99.90
4697;DHT22;2362;50.780;0.292;2023-06-04T11:54:45;18.10;99.90
4697;DHT22;2362;50.780;0.292;2023-06-04T11:57:10;18.30;99.90
4697;DHT22;2362;50.780;0.292;2023-06-04T11:59:36;18.40;99.90
4697;DHT22;2362;50.780;0.292;2023-06-04T12:02:27;18.70;99.90
4697;DHT22;2362;50.780;0.292;2023-06-04T12:04:56;18.50;99.90
4697;DHT22;2362;50.780;0.292;2023-06-04T12:07:22;18.30;99.90
4697;DHT22;2362;50.780;0.292;2023-06-04T12:09:50;18.30;99.90
4697;DHT22;2362;50.780;0.292;2023-06-04T12:12:21;18.30;99.90
4697;DHT22;2362;50.780;0.292;2023-06-04T12:14:47;18.60;99.90
4697;DHT22;2362;50.780;0.292;2023-06-04T12:17:13;18.80;99.90
4697;DHT22;2362;50.780;0.292;2023-06-04T12:19:47;18.90;99.90
4697;DHT22;2362;50.780;0.292;2023-06-04T12:22:16;19.10;99.90
4697;DHT22;2362;50.780;0.292;2023-06-04T12:24:50;19.00;99.90
4697;DHT22;2362;50.780;0.292;2023-06-04T12:27:19;18.70;99.90
4697;DHT22;2362;50.780;0.292;2023-06-04T12:30:07;18.60;99.90
4697;DHT22;2362;50.780;0.292;2023-06-04T12:32:35;18.50;99.90
4697;DHT22;2362;50.780;0.292;2023-06-04T12:35:01;18.30;99.90
4697;DHT22;2362;50.780;0.292;2023-06-04T12:37:28;18.30;99.90
4697;DHT22;2362;50.780;0.292;2023-06-04T12:39:54;18.30;99.90
4697;DHT22;2362;50.780;0.292;2023-06-04T12:42:20;18.50;99.90
4697;DHT22;2362;50.780;0.292;2023-06-04T12:44:46;18.50;99.90
4697;DHT22;2362;50.780;0.292;2023-06-04T12:47:12;18.40;99.90
4697;DHT22;2362;50.780;0.292;2023-06-04T12:50:03;18.50;99.90
4697;DHT22;2362;50.780;0.292;2023-06-04T12:52:29;18.30;99.90
4697;DHT22;2362;50.780;0.292;2023-06-04T12:54:54;18.40;99.90
4697;DHT22;2362;50.780;0.292;2023-06-04T12:57:20;18.40;99.90
4697;DHT22;2362;50.780;0.292;2023-06-04T12:59:46;18.20;99.90
4697;DHT22;2362;50.780;0.292;2023-06-04T13:02:11;18.10;99.90
4697;DHT22;2362;50.780;0.292;2023-06-04T13:04:37;18.30;99.90
4697;DHT22;2362;50.780;0.292;2023-06-04T13:07:02;18.50;99.90
4697;DHT22;2362;50.780;0.292;2023-06-04T13:09:28;18.30;99.90
4697;DHT22;2362;50.780;0.292;2023-06-04T13:11:54;18.20;99.90
4697;DHT22;2362;50.780;0.292;2023-06-04T13:14:20;18.10;99.90
4697;DHT22;2362;50.780;0.292;2023-06-04T13:16:45;18.10;99.90
4697;DHT22;2362;50.780;0.292;2023-06-04T13:19:14;18.00;99.90
4697;DHT22;2362;50.780;0.292;2023-06-04T13:21:39;18.10;99.90
4697;DHT22;2362;50.780;0.292;2023-06-04T13:24:05;18.20;99.90
4697;DHT22;2362;50.780;0.292;2023-06-04T13:26:32;18.30;99.90
4697;DHT22;2362;50.780;0.292;2023-06-04T13:28:58;18.40;99.90
4697;DHT22;2362;50.780;0.292;2023-06-04T13:31:24;18.40;99.90
4697;DHT22;2362;50.780;0.292;2023-06-04T13:33:49;18.30;99.90
4697;DHT22;2362;50.780;0.292;2023-06-04T13:36:15;18.20;99.90
4697;DHT22;2362;50.780;0.292;2023-06-04T13:38:41;18.10;99.90
4697;DHT22;2362;50.780;0.292;2023-06-04T13:41:08;18.10;99.90
4697;DHT22;2362;50.780;0.292;2023-06-04T13:43:34;18.00;99.90
4697;DHT22;2362;50.780;0.292;2023-06-04T13:45:59;18.00;99.90
4697;DHT22;2362;50.780;0.292;2023-06-04T13:48:25;18.10;99.90
4697;DHT22;2362;50.780;0.292;2023-06-04T13:50:51;18.20;99.90
4697;DHT22;2362;50.780;0.292;2023-06-04T13:53:16;18.30;99.90
4697;DHT22;2362;50.780;0.292;2023-06-04T13:55:42;18.30;99.90
4697;DHT22;2362;50.780;0.292;2023-06-04T13:58:07;18.30;99.90
4697;DHT22;2362;50.780;0.292;2023-06-04T14:00:33;18.20;99.90
4697;DHT22;2362;50.780;0.292;2023-06-04T14:02:59;18.50;99.90
4697;DHT22;2362;50.780;0.292;2023-06-04T14:05:25;18.80;99.90
4697;DHT22;2362;50.780;0.292;2023-06-04T14:07:53;19.00;99.90
4697;DHT22;2362;50.780;0.292;2023-06-04T14:10:19;19.10;99.90
4697;DHT22;2362;50.780;0.292;2023-06-04T14:12:45;19.20;99.90
4697;DHT22;2362;50.780;0.292;2023-06-04T14:15:11;19.20;99.90
4697;DHT22;2362;50.780;0.292;2023-06-04T14:17:38;19.30;99.90
4697;DHT22;2362;50.780;0.292;2023-06-04T14:20:05;19.40;99.90
4697;DHT22;2362;50.780;0.292;2023-06-04T14:22:38;19.50;99.90
4697;DHT22;2362;50.780;0.292;2023-06-04T14:25:05;19.70;99.90
4697;DHT22;2362;50.780;0.292;2023-06-04T14:27:32;19.90;99.90
4697;DHT22;2362;50.780;0.292;2023-06-04T14:29:57;20.00;99.90
4697;DHT22;2362;50.780;0.292;2023-06-04T14:32:23;20.30;99.90
4697;DHT22;2362;50.780;0.292;2023-06-04T14:34:49;20.40;99.90
4697;DHT22;2362;50.780;0.292;2023-06-04T14:37:15;20.60;99.90
4697;DHT22;2362;50.780;0.292;2023-06-04T14:40:06;20.60;99.90
4697;DHT22;2362;50.780;0.292;2023-06-04T14:42:34;20.70;99.90
4697;DHT22;2362;50.780;0.292;2023-06-04T14:45:00;20.50;99.90
4697;DHT22;2362;50.780;0.292;2023-06-04T14:47:25;20.50;99.90
4697;DHT22;2362;50.780;0.292;2023-06-04T14:49:51;20.60;99.90
4697;DHT22;2362;50.780;0.292;2023-06-04T14:52:16;20.60;99.90
4697;DHT22;2362;50.780;0.292;2023-06-04T14:54:42;20.50;99.90
4697;DHT22;2362;50.780;0.292;2023-06-04T14:57:08;20.60;99.90
4697;DHT22;2362;50.780;0.292;2023-06-04T14:59:33;20.40;99.90
4697;DHT22;2362;50.780;0.292;2023-06-04T15:02:00;20.40;99.90
4697;DHT22;2362;50.780;0.292;2023-06-04T15:04:26;20.40;99.90
4697;DHT22;2362;50.780;0.292;2023-06-04T15:06:52;20.40;99.90
4697;DHT22;2362;50.780;0.292;2023-06-04T15:09:17;20.40;99.90
4697;DHT22;2362;50.780;0.292;2023-06-04T15:11:43;20.30;99.90
4697;DHT22;2362;50.780;0.292;2023-06-04T15:14:12;20.30;99.90
4697;DHT22;2362;50.780;0.292;2023-06-04T15:16:38;20.30;99.90
4697;DHT22;2362;50.780;0.292;2023-06-04T15:19:03;20.20;99.90
4697;DHT22;2362;50.780;0.292;2023-06-04T15:21:29;20.30;99.90
4697;DHT22;2362;50.780;0.292;2023-06-04T15:23:54;20.20;99.90
4697;DHT22;2362;50.780;0.292;2023-06-04T15:26:21;20.20;99.90
4697;DHT22;2362;50.780;0.292;2023-06-04T15:28:46;20.20;99.90
4697;DHT22;2362;50.780;0.292;2023-06-04T15:31:12;20.20;99.90
4697;DHT22;2362;50.780;0.292;2023-06-04T15:33:38;20.30;99.90
4697;DHT22;2362;50.780;0.292;2023-06-04T15:36:04;20.20;99.90
4697;DHT22;2362;50.780;0.292;2023-06-04T15:38:31;20.30;99.90
4697;DHT22;2362;50.780;0.292;2023-06-04T15:40:57;20.30;99.90
4697;DHT22;2362;50.780;0.292;2023-06-04T15:43:23;20.30;99.90
4697;DHT22;2362;50.780;0.292;2023-06-04T15:45:49;20.20;99.90
4697;DHT22;2362;50.780;0.292;2023-06-04T15:48:14;20.20;99.90
4697;DHT22;2362;50.780;0.292;2023-06-04T15:50:40;20.20;99.90
4697;DHT22;2362;50.780;0.292;2023-06-04T15:53:06;20.20;99.90
4697;DHT22;2362;50.780;0.292;2023-06-04T15:55:32;20.10;99.90
4697;DHT22;2362;50.780;0.292;2023-06-04T15:57:58;20.00;99.90
4697;DHT22;2362;50.780;0.292;2023-06-04T16:00:23;20.00;99.90
4697;DHT22;2362;50.780;0.292;2023-06-04T16:02:49;19.90;99.90
4697;DHT22;2362;50.780;0.292;2023-06-04T16:05:15;20.00;99.90
4697;DHT22;2362;50.780;0.292;2023-06-04T16:07:41;19.90;99.90
4697;DHT22;2362;50.780;0.292;2023-06-04T16:10:07;19.90;99.90
4697;DHT22;2362;50.780;0.292;2023-06-04T16:12:33;20.00;99.90
4697;DHT22;2362;50.780;0.292;2023-06-04T16:14:58;20.10;99.90
4697;DHT22;2362;50.780;0.292;2023-06-04T16:17:27;20.10;99.90
4697;DHT22;2362;50.780;0.292;2023-06-04T16:19:52;19.90;99.90